AIRPORT ID: KVMR

DATE: 2024-07-20 ZULU TIME: 9.55 LOCAL TIME: 4.55


METAR KVMR 200955Z AUTO 00000KT 10SM 18/17 A3007

ALTIMETER: A3007 Q1018

DENSITY ALT: 1600 Ft

WIND DIRECT: 70

WIND SPEED: 2 Gust

WIND CONDITIONS:

VISIBILTY: 10SM 9999M

TEMPERATURE: 65 F 18 C

DEW POINT: 62 F 17 C

HUMID: 90%

LCL: 500-1,000 feet

RADIO CHECK: 0

ADVISARIES: 0

GREETINGS: 0

CONVERSATIONS: 0